createdAt,value
2023-01-21T00:00:59.480Z,-1.90
2023-01-21T00:03:26.399Z,-2.00
2023-01-21T00:05:53.315Z,-2.00
2023-01-21T00:08:20.346Z,-2.10
2023-01-21T00:10:47.265Z,-2.10
2023-01-21T00:13:14.208Z,-2.10
2023-01-21T00:15:41.318Z,-2.20
2023-01-21T00:18:08.827Z,-2.20
2023-01-21T00:20:35.730Z,-2.20
2023-01-21T00:23:03.068Z,-2.10
2023-01-21T00:25:29.814Z,-2.10
2023-01-21T00:27:56.739Z,-2.10
2023-01-21T00:30:23.650Z,-2.20
2023-01-21T00:32:50.555Z,-2.20
2023-01-21T00:35:17.390Z,-2.30
2023-01-21T00:37:44.137Z,-2.20
2023-01-21T00:40:11.460Z,-2.10
2023-01-21T00:42:38.436Z,-2.20
2023-01-21T00:45:05.786Z,-2.20
2023-01-21T00:47:32.551Z,-2.20
2023-01-21T00:49:59.318Z,-2.20
2023-01-21T00:52:26.220Z,-2.20
2023-01-21T00:54:53.040Z,-2.30
2023-01-21T00:57:19.880Z,-2.30
2023-01-21T00:59:47.092Z,-2.30
2023-01-21T01:02:14.085Z,-2.30
2023-01-21T01:04:40.922Z,-2.20
2023-01-21T01:07:07.947Z,-2.20
2023-01-21T01:09:34.768Z,-2.30
2023-01-21T01:12:01.578Z,-2.20
2023-01-21T01:14:29.990Z,-2.30
2023-01-21T01:16:56.865Z,-2.40
2023-01-21T01:19:25.008Z,-2.40
2023-01-21T01:21:51.789Z,-2.40
2023-01-21T01:24:18.632Z,-2.50
2023-01-21T01:26:45.633Z,-2.40
2023-01-21T01:29:16.063Z,-2.40
2023-01-21T01:31:44.196Z,-2.40
2023-01-21T01:34:11.094Z,-2.40
2023-01-21T01:36:37.871Z,-2.50
2023-01-21T01:39:05.838Z,-2.50
2023-01-21T01:41:35.248Z,-2.50
2023-01-21T01:44:05.192Z,-2.50
2023-01-21T01:46:35.361Z,-2.40
2023-01-21T01:49:16.909Z,-2.40
2023-01-21T01:51:51.585Z,-2.40
2023-01-21T01:54:24.540Z,-2.50
2023-01-21T01:56:56.460Z,-2.50
2023-01-21T01:59:24.104Z,-2.50
2023-01-21T02:01:51.421Z,-2.50
2023-01-21T02:04:23.177Z,-2.60
2023-01-21T02:06:52.380Z,-2.60
2023-01-21T02:09:19.399Z,-2.60
2023-01-21T02:11:46.299Z,-2.50
2023-01-21T02:14:13.336Z,-2.60
2023-01-21T02:17:02.981Z,-2.60
2023-01-21T02:19:38.935Z,-2.40
2023-01-21T02:22:22.966Z,-2.30
2023-01-21T02:25:08.561Z,-2.20
2023-01-21T02:28:07.385Z,-2.10
2023-01-21T02:30:55.161Z,-2.10
2023-01-21T02:33:38.184Z,-2.10
2023-01-21T02:36:17.468Z,-2.20
2023-01-21T02:39:10.741Z,-2.20
2023-01-21T02:41:46.976Z,-2.20
2023-01-21T02:44:24.905Z,-2.20
2023-01-21T02:47:13.673Z,-2.20
2023-01-21T02:49:44.361Z,-2.30
2023-01-21T02:52:22.248Z,-2.30
2023-01-21T02:54:55.032Z,-2.20
2023-01-21T02:57:49.768Z,-2.20
2023-01-21T03:00:24.723Z,-2.30
2023-01-21T03:03:16.531Z,-2.30
2023-01-21T03:06:08.086Z,-2.40
2023-01-21T03:09:19.998Z,-2.40
2023-01-21T03:11:56.737Z,-2.30
2023-01-21T03:14:48.864Z,-2.30
2023-01-21T03:17:41.621Z,-2.30
2023-01-21T03:20:13.152Z,-2.30
2023-01-21T03:22:40.582Z,-2.20
2023-01-21T03:25:13.413Z,-2.20
2023-01-21T03:27:44.900Z,-2.20
2023-01-21T03:30:18.258Z,-2.30
2023-01-21T03:32:49.685Z,-2.20
2023-01-21T03:35:47.527Z,-2.20
2023-01-21T03:38:30.637Z,-2.10
2023-01-21T03:41:03.225Z,-2.20
2023-01-21T03:43:30.107Z,-2.20
2023-01-21T03:46:22.925Z,-2.00
2023-01-21T03:48:56.936Z,-1.90
2023-01-21T03:51:29.564Z,-1.80
2023-01-21T03:53:57.876Z,-1.70
2023-01-21T03:56:26.419Z,-1.70
2023-01-21T03:58:53.596Z,-1.60
2023-01-21T04:01:20.685Z,-1.60
2023-01-21T04:03:47.472Z,-1.50
2023-01-21T04:06:16.388Z,-1.50
2023-01-21T04:08:43.314Z,-1.50
2023-01-21T04:11:10.272Z,-1.50
2023-01-21T04:13:36.976Z,-1.50
2023-01-21T04:16:04.832Z,-1.50
2023-01-21T04:18:32.049Z,-1.40
2023-01-21T04:20:59.027Z,-1.40
2023-01-21T04:23:25.879Z,-1.30
2023-01-21T04:25:53.587Z,-1.30
2023-01-21T04:28:20.529Z,-1.20
2023-01-21T04:30:47.928Z,-1.20
2023-01-21T04:33:14.942Z,-1.20
2023-01-21T04:35:41.691Z,-1.20
2023-01-21T04:38:08.487Z,-1.10
2023-01-21T04:40:37.738Z,-1.20
2023-01-21T04:43:04.504Z,-1.10
2023-01-21T04:45:31.332Z,-1.10
2023-01-21T04:47:58.314Z,-1.00
2023-01-21T04:50:25.572Z,-1.00
2023-01-21T04:52:52.451Z,-1.00
2023-01-21T04:55:19.639Z,-1.00
2023-01-21T04:57:46.475Z,-1.00
2023-01-21T05:00:13.803Z,-0.90
2023-01-21T05:02:40.973Z,-0.90
2023-01-21T05:05:08.145Z,-0.90
2023-01-21T05:07:35.287Z,-0.90
2023-01-21T05:10:02.041Z,-0.90
2023-01-21T05:12:29.109Z,-0.90
2023-01-21T05:14:59.293Z,-0.90
2023-01-21T05:17:26.448Z,-0.90
2023-01-21T05:19:53.482Z,-0.80
2023-01-21T05:22:20.473Z,-0.80
2023-01-21T05:24:47.216Z,-0.80
2023-01-21T05:27:14.069Z,-0.80
2023-01-21T05:29:40.887Z,-0.70
2023-01-21T05:32:07.730Z,-0.70
2023-01-21T05:34:34.522Z,-0.70
2023-01-21T05:37:01.290Z,-0.80
2023-01-21T05:39:28.091Z,-0.70
2023-01-21T05:41:54.826Z,-0.70
2023-01-21T05:44:21.595Z,-0.70
2023-01-21T05:46:48.576Z,-0.70
2023-01-21T05:49:15.646Z,-0.70
2023-01-21T05:51:42.433Z,-0.70
2023-01-21T05:54:09.151Z,-0.70
2023-01-21T05:56:35.893Z,-0.70
2023-01-21T05:59:03.005Z,-0.60
2023-01-21T06:01:29.780Z,-0.60
2023-01-21T06:03:56.683Z,-0.50
2023-01-21T06:06:23.466Z,-0.50
2023-01-21T06:08:50.229Z,-0.50
2023-01-21T06:11:18.417Z,-0.50
2023-01-21T06:13:45.166Z,-0.40
2023-01-21T06:16:12.213Z,-0.40
2023-01-21T06:18:39.586Z,-0.40
2023-01-21T06:21:06.581Z,-0.40
2023-01-21T06:23:33.433Z,-0.40
2023-01-21T06:26:03.684Z,-0.40
2023-01-21T06:28:31.129Z,-0.40
2023-01-21T06:30:58.008Z,-0.40
2023-01-21T06:33:25.155Z,-0.40
2023-01-21T06:35:51.993Z,-0.40
2023-01-21T06:38:18.802Z,-0.40
2023-01-21T06:40:45.671Z,-0.40
2023-01-21T06:43:12.723Z,-0.40
2023-01-21T06:45:39.536Z,-0.40
2023-01-21T06:48:06.380Z,-0.30
2023-01-21T06:50:33.334Z,-0.30
2023-01-21T06:53:00.272Z,-0.30
2023-01-21T06:55:27.075Z,-0.30
2023-01-21T06:57:54.032Z,-0.30
2023-01-21T07:00:21.435Z,-0.30
2023-01-21T07:02:48.924Z,-0.30
2023-01-21T07:05:16.395Z,-0.30
2023-01-21T07:07:43.342Z,-0.20
2023-01-21T07:10:10.873Z,-0.20
2023-01-21T07:12:37.816Z,-0.20
2023-01-21T07:15:05.302Z,-0.20
2023-01-21T07:17:32.797Z,-0.20
2023-01-21T07:19:59.628Z,-0.20
2023-01-21T07:22:26.430Z,-0.10
2023-01-21T07:24:53.225Z,-0.10
2023-01-21T07:27:19.985Z,-0.10
2023-01-21T07:29:46.794Z,-0.10
2023-01-21T07:32:13.540Z,-0.10
2023-01-21T07:34:40.407Z,-0.10
2023-01-21T07:37:07.203Z,-0.10
2023-01-21T07:39:34.036Z,-0.10
2023-01-21T07:42:00.956Z,-0.10
2023-01-21T07:44:27.815Z,-0.10
2023-01-21T07:46:54.777Z,0.00
2023-01-21T07:49:21.529Z,0.00
2023-01-21T07:51:48.493Z,0.00
2023-01-21T07:54:15.923Z,0.00
2023-01-21T07:56:43.169Z,0.00
2023-01-21T07:59:11.584Z,0.00
2023-01-21T08:01:38.437Z,0.00
2023-01-21T08:04:07.101Z,0.00
2023-01-21T08:06:34.237Z,0.10
2023-01-21T08:09:01.289Z,0.20
2023-01-21T08:11:28.074Z,0.20
2023-01-21T08:13:54.847Z,0.20
2023-01-21T08:16:21.990Z,0.10
2023-01-21T08:18:48.802Z,0.20
2023-01-21T08:21:15.600Z,0.20
2023-01-21T08:23:42.381Z,0.20
2023-01-21T08:26:09.233Z,1.30
2023-01-21T08:28:36.251Z,0.10
2023-01-21T08:31:05.845Z,0.20
2023-01-21T08:33:33.233Z,0.30
2023-01-21T08:36:06.317Z,0.30
2023-01-21T08:38:34.910Z,0.40
2023-01-21T08:41:01.952Z,0.40
2023-01-21T08:43:28.726Z,0.30
2023-01-21T08:45:56.805Z,0.40
2023-01-21T08:48:24.049Z,0.30
2023-01-21T08:50:50.949Z,0.30
2023-01-21T08:53:17.760Z,0.30
2023-01-21T08:55:44.924Z,0.50
2023-01-21T08:58:11.729Z,0.40
2023-01-21T09:00:38.662Z,0.40
2023-01-21T09:03:05.440Z,0.40
2023-01-21T09:05:32.258Z,0.40
2023-01-21T09:07:59.093Z,0.50
2023-01-21T09:10:44.426Z,0.40
2023-01-21T09:13:11.540Z,0.50
2023-01-21T09:15:40.116Z,0.40
2023-01-21T09:18:07.747Z,0.40
2023-01-21T09:20:35.512Z,0.50
2023-01-21T09:23:02.277Z,0.50
2023-01-21T09:25:29.221Z,0.50
2023-01-21T09:27:56.200Z,0.50
2023-01-21T09:30:23.046Z,0.50
2023-01-21T09:32:49.892Z,0.50
2023-01-21T09:35:16.922Z,0.50
2023-01-21T09:37:43.845Z,0.40
2023-01-21T09:40:16.264Z,0.60
2023-01-21T09:42:43.213Z,0.70
2023-01-21T09:45:14.751Z,0.60
2023-01-21T09:47:45.000Z,0.50
2023-01-21T09:50:16.785Z,0.60
2023-01-21T09:52:53.147Z,0.50
2023-01-21T09:55:27.279Z,0.50
2023-01-21T09:58:23.602Z,0.50
2023-01-21T10:01:09.600Z,0.50
2023-01-21T10:04:02.787Z,0.50
2023-01-21T10:06:54.799Z,0.50
2023-01-21T10:09:24.778Z,0.50
2023-01-21T10:12:03.304Z,0.60
2023-01-21T10:15:16.081Z,0.70
2023-01-21T10:17:57.649Z,0.60
2023-01-21T10:20:35.351Z,0.70
2023-01-21T10:23:29.445Z,0.80
2023-01-21T10:26:01.793Z,0.70
2023-01-21T10:28:32.411Z,0.80
2023-01-21T10:31:06.527Z,0.80
2023-01-21T10:33:34.424Z,0.90
2023-01-21T10:36:04.425Z,0.90
2023-01-21T10:38:54.282Z,0.90
2023-01-21T10:41:26.557Z,0.90
2023-01-21T10:44:18.248Z,1.00
2023-01-21T10:46:51.803Z,0.90
2023-01-21T10:49:44.140Z,1.00
2023-01-21T10:52:43.378Z,0.80
2023-01-21T10:55:42.935Z,0.80
2023-01-21T10:58:25.598Z,0.80
2023-01-21T11:00:54.175Z,0.80
2023-01-21T11:03:43.887Z,0.80
2023-01-21T11:06:13.681Z,0.80
2023-01-21T11:08:43.143Z,0.90
2023-01-21T11:11:10.665Z,1.00
2023-01-21T11:13:37.523Z,1.10
2023-01-21T11:16:05.184Z,1.00
2023-01-21T11:18:35.902Z,1.00
2023-01-21T11:21:20.866Z,1.10
2023-01-21T11:23:59.885Z,1.20
2023-01-21T11:26:35.086Z,1.20
2023-01-21T11:29:13.024Z,1.20
2023-01-21T11:31:42.276Z,1.20
2023-01-21T11:34:18.280Z,1.20
2023-01-21T11:37:23.140Z,1.20
2023-01-21T11:39:56.736Z,1.20
2023-01-21T11:42:24.318Z,1.10
2023-01-21T11:45:07.364Z,1.20
2023-01-21T11:47:48.764Z,1.10
2023-01-21T11:50:26.062Z,1.20
2023-01-21T11:53:12.345Z,1.20
2023-01-21T11:55:46.909Z,1.20
2023-01-21T11:58:30.180Z,1.20
2023-01-21T12:00:59.581Z,1.20
2023-01-21T12:03:48.428Z,1.10
2023-01-21T12:06:22.307Z,1.20
2023-01-21T12:08:52.280Z,1.30
2023-01-21T12:11:25.068Z,1.40
2023-01-21T12:14:27.941Z,1.40
2023-01-21T12:17:13.522Z,1.40
2023-01-21T12:20:13.739Z,1.60
2023-01-21T12:22:46.518Z,1.70
2023-01-21T12:25:40.748Z,1.70
2023-01-21T12:28:17.354Z,1.70
2023-01-21T12:31:11.225Z,1.60
2023-01-21T12:33:58.616Z,1.60
2023-01-21T12:36:29.698Z,1.70
2023-01-21T12:39:17.970Z,1.60
2023-01-21T12:41:51.217Z,1.70
2023-01-21T12:44:31.413Z,1.70
2023-01-21T12:47:05.650Z,1.60
2023-01-21T12:49:59.829Z,1.70
2023-01-21T12:52:42.023Z,1.80
2023-01-21T12:55:22.889Z,1.80
2023-01-21T12:58:05.929Z,1.70
2023-01-21T13:00:36.753Z,1.70
2023-01-21T13:03:21.293Z,1.70
2023-01-21T13:06:12.470Z,1.70
2023-01-21T13:09:11.685Z,1.70
2023-01-21T13:12:00.493Z,1.60
2023-01-21T13:14:34.425Z,1.70
2023-01-21T13:17:10.025Z,1.70
2023-01-21T13:19:36.971Z,1.60
2023-01-21T13:22:11.022Z,1.60
2023-01-21T13:24:56.337Z,1.70
2023-01-21T13:27:34.679Z,1.70
2023-01-21T13:30:07.599Z,1.70
2023-01-21T13:33:17.607Z,1.80
2023-01-21T13:35:56.494Z,1.70
2023-01-21T13:38:23.261Z,1.80
2023-01-21T13:41:05.694Z,1.80
2023-01-21T13:43:57.596Z,1.80
2023-01-21T13:46:48.786Z,1.80
2023-01-21T13:49:34.812Z,1.80
2023-01-21T13:52:01.704Z,1.70
2023-01-21T13:54:47.006Z,1.70
2023-01-21T13:57:31.736Z,1.80
2023-01-21T14:00:13.216Z,1.70
2023-01-21T14:03:04.579Z,1.70
2023-01-21T14:05:53.026Z,1.70
2023-01-21T14:08:38.806Z,1.70
2023-01-21T14:11:11.979Z,1.70
2023-01-21T14:13:44.931Z,1.70
2023-01-21T14:16:35.966Z,1.70
2023-01-21T14:19:16.954Z,1.70
2023-01-21T14:21:52.706Z,1.70
2023-01-21T14:24:46.592Z,1.70
2023-01-21T14:27:16.689Z,1.60
2023-01-21T14:30:21.177Z,1.60
2023-01-21T14:32:55.642Z,1.60
2023-01-21T14:35:28.499Z,1.60
2023-01-21T14:38:02.034Z,1.60
2023-01-21T14:40:35.216Z,1.60
2023-01-21T14:43:02.384Z,1.60
2023-01-21T14:45:55.480Z,1.60
2023-01-21T14:48:45.659Z,1.50
2023-01-21T14:51:20.555Z,1.50
2023-01-21T14:53:50.283Z,1.50
2023-01-21T14:56:31.805Z,1.50
2023-01-21T14:59:24.685Z,1.50
2023-01-21T15:02:01.929Z,1.50
2023-01-21T15:04:33.373Z,1.50
2023-01-21T15:07:09.616Z,1.50
2023-01-21T15:09:42.085Z,1.40
2023-01-21T15:12:21.327Z,1.40
2023-01-21T15:14:49.527Z,1.40
2023-01-21T15:17:53.950Z,1.40
2023-01-21T15:20:42.583Z,1.40
2023-01-21T15:23:30.022Z,1.30
2023-01-21T15:26:18.468Z,1.30
2023-01-21T15:28:55.876Z,1.30
2023-01-21T15:31:25.348Z,1.40
2023-01-21T15:33:54.055Z,1.40
2023-01-21T15:36:41.417Z,1.30
2023-01-21T15:39:25.251Z,1.30
2023-01-21T15:42:44.986Z,1.30
2023-01-21T15:45:33.143Z,1.30
2023-01-21T15:48:42.246Z,1.20
2023-01-21T15:51:37.354Z,1.30
2023-01-21T15:54:42.219Z,1.20
2023-01-21T15:57:21.610Z,1.20
2023-01-21T15:59:58.825Z,1.20
2023-01-21T16:02:32.554Z,1.20
2023-01-21T16:05:25.196Z,1.10
2023-01-21T16:08:08.739Z,1.10
2023-01-21T16:10:47.571Z,1.10
2023-01-21T16:13:45.158Z,1.10
2023-01-21T16:16:18.345Z,1.10
2023-01-21T16:19:04.416Z,1.10
2023-01-21T16:21:35.393Z,1.00
2023-01-21T16:24:11.930Z,1.00
2023-01-21T16:26:38.949Z,1.00
2023-01-21T16:29:11.358Z,1.00
2023-01-21T16:31:45.898Z,1.00
2023-01-21T16:34:12.913Z,1.00
2023-01-21T16:36:42.100Z,1.00
2023-01-21T16:39:10.883Z,1.00
2023-01-21T16:41:40.464Z,0.90
2023-01-21T16:44:16.415Z,1.00
2023-01-21T16:46:46.229Z,1.00
2023-01-21T16:49:17.031Z,0.90
2023-01-21T16:52:04.501Z,0.90
2023-01-21T16:54:32.727Z,0.90
2023-01-21T16:57:20.261Z,1.00
2023-01-21T16:59:56.014Z,1.00
2023-01-21T17:02:28.163Z,1.60
2023-01-21T17:04:57.780Z,1.00
2023-01-21T17:07:30.260Z,1.00
2023-01-21T17:10:08.118Z,1.00
2023-01-21T17:12:36.478Z,1.00
2023-01-21T17:15:38.651Z,1.00
2023-01-21T17:18:10.513Z,1.10
2023-01-21T17:20:43.750Z,1.00
2023-01-21T17:23:18.811Z,1.00
2023-01-21T17:25:53.890Z,1.10
2023-01-21T17:28:40.211Z,1.10
2023-01-21T17:31:12.264Z,1.00
2023-01-21T17:33:39.235Z,1.00
2023-01-21T17:36:13.443Z,1.00
2023-01-21T17:38:49.013Z,1.00
2023-01-21T17:41:26.400Z,1.00
2023-01-21T17:43:58.372Z,1.00
2023-01-21T17:46:25.680Z,1.00
2023-01-21T17:49:02.076Z,0.90
2023-01-21T17:51:32.865Z,0.90
2023-01-21T17:54:29.807Z,0.90
2023-01-21T17:56:58.565Z,0.90
2023-01-21T17:59:38.412Z,1.00
2023-01-21T18:02:11.037Z,1.00
2023-01-21T18:04:38.146Z,1.00
2023-01-21T18:07:19.677Z,1.00
2023-01-21T18:09:46.561Z,1.00
2023-01-21T18:12:13.491Z,1.00
2023-01-21T18:14:41.797Z,1.00
2023-01-21T18:17:19.421Z,1.00
2023-01-21T18:19:47.129Z,1.00
2023-01-21T18:22:36.125Z,1.00
2023-01-21T18:25:05.264Z,1.00
2023-01-21T18:27:32.174Z,1.10
2023-01-21T18:29:59.346Z,1.00
2023-01-21T18:32:26.458Z,1.10
2023-01-21T18:34:53.313Z,1.10
2023-01-21T18:37:20.668Z,1.20
2023-01-21T18:39:47.794Z,1.20
2023-01-21T18:42:16.096Z,1.20
2023-01-21T18:44:43.229Z,1.10
2023-01-21T18:47:15.861Z,1.10
2023-01-21T18:49:43.235Z,1.20
2023-01-21T18:52:20.366Z,1.20
2023-01-21T18:54:47.750Z,1.10
2023-01-21T18:57:24.158Z,1.20
2023-01-21T18:59:51.355Z,1.20
2023-01-21T19:02:20.529Z,1.20
2023-01-21T19:04:48.353Z,1.10
2023-01-21T19:07:24.209Z,1.10
2023-01-21T19:09:51.265Z,1.10
2023-01-21T19:12:21.514Z,1.10
2023-01-21T19:14:49.095Z,1.10
2023-01-21T19:17:30.933Z,1.10
2023-01-21T19:19:58.101Z,1.10
2023-01-21T19:22:33.617Z,1.10
2023-01-21T19:25:00.750Z,1.20
2023-01-21T19:27:34.331Z,1.10
2023-01-21T19:30:02.354Z,1.10
2023-01-21T19:32:32.255Z,1.10
2023-01-21T19:35:00.919Z,1.10
2023-01-21T19:37:30.470Z,1.20
2023-01-21T19:40:00.308Z,1.10
2023-01-21T19:42:29.497Z,1.10
2023-01-21T19:44:57.149Z,1.10
2023-01-21T19:47:28.858Z,1.10
2023-01-21T19:49:55.787Z,1.10
2023-01-21T19:52:28.200Z,1.10
2023-01-21T19:54:58.128Z,1.10
2023-01-21T19:57:25.612Z,1.10
2023-01-21T19:59:53.223Z,1.00
2023-01-21T20:02:20.311Z,1.10
2023-01-21T20:04:48.319Z,1.10
2023-01-21T20:07:22.292Z,1.00
2023-01-21T20:09:54.794Z,1.00
2023-01-21T20:12:21.883Z,0.90
2023-01-21T20:14:48.872Z,0.90
2023-01-21T20:17:15.775Z,0.90
2023-01-21T20:19:45.722Z,0.90
2023-01-21T20:22:13.174Z,0.80
2023-01-21T20:24:39.959Z,0.80
2023-01-21T20:27:20.569Z,0.80
2023-01-21T20:30:02.763Z,0.80
2023-01-21T20:32:34.668Z,0.80
2023-01-21T20:35:03.632Z,0.80
2023-01-21T20:37:36.978Z,0.80
2023-01-21T20:40:13.941Z,1.90
2023-01-21T20:42:44.098Z,0.80
2023-01-21T20:45:24.675Z,0.80
2023-01-21T20:47:57.735Z,0.70
2023-01-21T20:50:36.125Z,0.80
2023-01-21T20:53:05.960Z,0.80
2023-01-21T20:55:36.123Z,0.70
2023-01-21T20:58:06.200Z,0.80
2023-01-21T21:00:34.977Z,0.70
2023-01-21T21:03:02.290Z,0.80
2023-01-21T21:05:31.365Z,0.70
2023-01-21T21:08:06.434Z,0.70
2023-01-21T21:10:41.758Z,0.70
2023-01-21T21:13:08.973Z,0.80
2023-01-21T21:15:37.096Z,0.80
2023-01-21T21:18:04.793Z,0.80
2023-01-21T21:20:38.847Z,0.70
2023-01-21T21:23:07.455Z,0.80
2023-01-21T21:25:40.795Z,0.80
2023-01-21T21:28:09.567Z,0.80
2023-01-21T21:30:36.780Z,0.80
2023-01-21T21:33:03.735Z,0.80
2023-01-21T21:35:37.780Z,0.70
2023-01-21T21:38:18.432Z,0.80
2023-01-21T21:40:47.341Z,0.80
2023-01-21T21:43:33.183Z,0.80
2023-01-21T21:46:28.539Z,0.80
2023-01-21T21:48:55.392Z,0.80
2023-01-21T21:51:23.030Z,0.80
2023-01-21T21:53:50.588Z,0.80
2023-01-21T21:56:25.640Z,0.80
2023-01-21T21:58:52.718Z,0.80
2023-01-21T22:01:29.513Z,0.80
2023-01-21T22:04:01.259Z,0.70
2023-01-21T22:06:28.519Z,0.80
2023-01-21T22:08:57.238Z,0.70
2023-01-21T22:11:24.531Z,0.70
2023-01-21T22:13:52.376Z,0.70
2023-01-21T22:16:25.191Z,0.80
2023-01-21T22:18:53.559Z,0.80
2023-01-21T22:21:22.974Z,0.70
2023-01-21T22:23:50.401Z,0.70
2023-01-21T22:26:20.514Z,0.70
2023-01-21T22:28:51.267Z,0.80
2023-01-21T22:31:29.564Z,0.80
2023-01-21T22:33:58.020Z,0.70
2023-01-21T22:36:27.178Z,0.70
2023-01-21T22:38:54.767Z,0.70
2023-01-21T22:41:23.983Z,0.70
2023-01-21T22:43:52.569Z,0.70
2023-01-21T22:46:30.044Z,0.70
2023-01-21T22:48:57.789Z,0.70
2023-01-21T22:51:24.588Z,0.60
2023-01-21T22:53:52.382Z,0.60
2023-01-21T22:56:39.878Z,0.60
2023-01-21T22:59:11.312Z,0.60
2023-01-21T23:01:38.571Z,0.50
2023-01-21T23:04:06.143Z,0.40
2023-01-21T23:06:33.007Z,0.40
2023-01-21T23:08:59.825Z,0.40
2023-01-21T23:11:26.679Z,0.40
2023-01-21T23:13:55.193Z,0.40
2023-01-21T23:16:22.218Z,0.40
2023-01-21T23:18:49.250Z,0.40
2023-01-21T23:21:21.636Z,0.50
2023-01-21T23:23:49.465Z,0.50
2023-01-21T23:26:19.293Z,0.50
2023-01-21T23:28:46.591Z,0.50
2023-01-21T23:31:15.584Z,0.50
2023-01-21T23:33:42.542Z,0.50
2023-01-21T23:36:12.809Z,0.50
2023-01-21T23:38:40.558Z,0.50
2023-01-21T23:41:09.467Z,0.50
2023-01-21T23:43:37.132Z,0.50
2023-01-21T23:46:08.865Z,0.50
2023-01-21T23:48:35.962Z,0.40
2023-01-21T23:51:07.370Z,0.40
2023-01-21T23:53:34.974Z,0.30
2023-01-21T23:56:05.748Z,0.30
2023-01-21T23:58:32.612Z,0.30
